Time;durP1;ratioP1;P1;durP2;ratioP2;P2;SDS_P1;SDS_P2;PMS_P1;PMS_P2;Temp;Humidity;BMP_temperature;BMP_pressure;BME280_temperature;BME280_humidity;BME280_pressure;Samples;Min_cycle;Max_cycle;Signal;HPM_P1;HPM_P2
2022/12/29 00:01:38;;;;;;;3.90;3.20;;;10.90;1.00;;;;;;5044738;28;20434;-70
2022/12/29 00:04:04;;;;;;;3.97;3.03;;;10.80;1.00;;;;;;5036374;28;20181;-70
2022/12/29 00:06:30;;;;;;;5.60;3.50;;;10.80;1.00;;;;;;5047751;28;20474;-68
2022/12/29 00:08:56;;;;;;;4.03;3.13;;;10.80;1.00;;;;;;5039217;28;20438;-70
2022/12/29 00:11:24;;;;;;;3.43;3.13;;;10.80;1.00;;;;;;5046974;28;20455;-70
2022/12/29 00:16:36;;;;;;;4.17;3.47;;;10.70;1.00;;;;;;5046008;28;20874;-70
2022/12/29 00:19:03;;;;;;;4.30;3.40;;;10.70;1.00;;;;;;5052627;28;20455;-71
2022/12/29 00:35:09;;;;;;;6.77;3.00;;;10.80;1.00;;;;;;5040892;28;20995;-72
2022/12/29 00:45:57;;;;;;;4.27;3.17;;;11.00;1.00;;;;;;5041810;28;20824;-70
2022/12/29 00:51:08;;;;;;;4.13;2.50;;;11.10;1.00;;;;;;5043344;28;20568;-70
2022/12/29 00:53:34;;;;;;;3.70;2.53;;;11.20;1.00;;;;;;5058793;28;20484;-71
2022/12/29 00:55:59;;;;;;;3.60;2.23;;;11.20;1.00;;;;;;5046355;28;20972;-70
2022/12/29 00:58:29;;;;;;;4.70;2.67;;;11.30;1.00;;;;;;5051271;28;20177;-70
2022/12/29 01:01:05;;;;;;;4.30;2.43;;;11.30;1.00;;;;;;5047463;28;20227;-69
2022/12/29 01:03:31;;;;;;;3.10;2.40;;;11.40;1.00;;;;;;5040478;28;20431;-70
2022/12/29 01:06:00;;;;;;;4.20;2.33;;;11.40;1.00;;;;;;5045026;28;20485;-70
2022/12/29 01:08:27;;;;;;;5.20;2.90;;;11.40;1.00;;;;;;5043665;28;20455;-70
2022/12/29 01:11:05;;;;;;;6.50;3.00;;;11.50;1.00;;;;;;5046531;28;20455;-68
2022/12/29 01:13:31;;;;;;;3.80;2.43;;;11.50;1.00;;;;;;5040341;28;20523;-70
2022/12/29 01:15:57;;;;;;;3.00;2.13;;;11.60;1.00;;;;;;5050331;28;20423;-70
2022/12/29 01:18:24;;;;;;;3.03;2.33;;;11.70;1.00;;;;;;5045464;28;21022;-70
2022/12/29 01:20:49;;;;;;;3.87;2.10;;;11.80;1.00;;;;;;5037050;28;20220;-70
2022/12/29 01:23:15;;;;;;;2.83;1.83;;;11.90;1.00;;;;;;5047487;28;20926;-71
2022/12/29 01:25:41;;;;;;;5.20;2.20;;;12.00;1.00;;;;;;5041963;28;20186;-69
2022/12/29 01:28:08;;;;;;;2.77;2.00;;;12.00;1.00;;;;;;5051146;28;20177;-70
2022/12/29 01:30:34;;;;;;;5.80;2.57;;;12.00;1.00;;;;;;5043670;28;20194;-72
2022/12/29 01:32:59;;;;;;;2.77;2.10;;;12.10;1.00;;;;;;5039802;28;20439;-70
2022/12/29 01:35:25;;;;;;;4.37;2.00;;;12.10;1.00;;;;;;5044852;28;20432;-70
2022/12/29 01:37:50;;;;;;;6.90;2.20;;;12.10;1.00;;;;;;5043584;28;20532;-70
2022/12/29 01:40:16;;;;;;;3.27;1.90;;;12.20;1.00;;;;;;5034196;28;20252;-68
2022/12/29 01:42:41;;;;;;;3.10;2.17;;;12.20;1.00;;;;;;5047335;28;20181;-70
2022/12/29 01:45:12;;;;;;;6.27;2.53;;;12.30;1.00;;;;;;5043754;28;20575;-70
2022/12/29 01:48:00;;;;;;;2.37;1.90;;;12.30;1.00;;;;;;5048910;28;20176;-70
2022/12/29 01:50:40;;;;;;;4.87;2.20;;;12.40;1.00;;;;;;5040919;28;21004;-70
2022/12/29 01:53:10;;;;;;;3.10;1.97;;;12.40;1.00;;;;;;5047611;28;20501;-69
2022/12/29 01:55:42;;;;;;;4.50;2.10;;;12.40;1.00;;;;;;5041347;28;20436;-70
2022/12/29 01:58:10;;;;;;;3.17;2.17;;;12.40;1.00;;;;;;5044834;28;20523;-71
2022/12/29 02:00:37;;;;;;;5.83;2.40;;;12.50;1.00;;;;;;5042172;28;20444;-70
2022/12/29 02:03:04;;;;;;;3.93;1.97;;;12.50;1.00;;;;;;5044606;28;20478;-70
2022/12/29 02:05:50;;;;;;;3.37;2.00;;;12.50;1.00;;;;;;5041604;28;20432;-71
2022/12/29 02:08:16;;;;;;;6.13;1.90;;;12.20;1.00;;;;;;5039558;28;20456;-70
2022/12/29 02:10:43;;;;;;;6.83;2.20;;;11.90;1.00;;;;;;5054652;28;20435;-71
2022/12/29 02:13:08;;;;;;;3.80;2.23;;;11.80;1.00;;;;;;5037213;28;20420;-70
2022/12/29 02:15:51;;;;;;;3.90;2.10;;;11.70;1.00;;;;;;5039474;28;20475;-70
2022/12/29 02:18:29;;;;;;;2.77;1.70;;;11.80;1.00;;;;;;5044192;28;20169;-70
2022/12/29 02:21:30;;;;;;;2.20;1.80;;;11.90;1.00;;;;;;5047197;28;20465;-70
2022/12/29 02:24:07;;;;;;;2.60;1.80;;;12.00;1.00;;;;;;5058241;28;20406;-70
2022/12/29 02:26:51;;;;;;;4.40;1.50;;;12.00;1.00;;;;;;5043068;28;20440;-70
2022/12/29 02:29:40;;;;;;;3.20;1.67;;;12.10;1.00;;;;;;5043720;28;20825;-70
2022/12/29 02:32:20;;;;;;;3.47;1.77;;;12.10;1.00;;;;;;5038537;28;20443;-70
2022/12/29 02:35:15;;;;;;;4.77;1.97;;;12.20;1.00;;;;;;5048491;28;20495;-71
2022/12/29 02:38:13;;;;;;;2.40;1.67;;;12.20;1.00;;;;;;5035996;28;20956;-70
2022/12/29 02:41:12;;;;;;;2.50;2.17;;;12.20;1.00;;;;;;5038519;28;20448;-70
2022/12/29 02:43:50;;;;;;;3.50;1.80;;;12.30;1.00;;;;;;5031203;28;20423;-70
2022/12/29 02:46:49;;;;;;;3.20;1.87;;;12.30;1.00;;;;;;5036676;28;20430;-70
2022/12/29 02:49:32;;;;;;;2.13;1.73;;;12.10;1.00;;;;;;5037634;28;21000;-70
2022/12/29 02:52:00;;;;;;;4.03;1.73;;;11.90;1.00;;;;;;5046651;28;20925;-70
2022/12/29 02:54:41;;;;;;;3.07;1.83;;;11.80;1.00;;;;;;5043452;28;20536;-70
2022/12/29 02:57:36;;;;;;;3.13;1.80;;;11.80;1.00;;;;;;5040756;28;20783;-71
2022/12/29 03:00:04;;;;;;;3.10;1.90;;;11.80;1.00;;;;;;5017422;28;20518;-70
2022/12/29 03:02:35;;;;;;;2.00;1.73;;;11.90;1.00;;;;;;5037501;28;20425;-70
2022/12/29 03:05:29;;;;;;;2.33;1.90;;;11.90;1.00;;;;;;5041966;28;20439;-70
2022/12/29 03:08:22;;;;;;;3.97;2.27;;;11.90;1.00;;;;;;5039271;28;20477;-70
2022/12/29 03:11:00;;;;;;;3.77;2.10;;;11.80;1.00;;;;;;5043465;28;20460;-70
2022/12/29 03:16:47;;;;;;;6.73;2.17;;;11.80;1.00;;;;;;5036671;28;21050;-70
2022/12/29 03:19:22;;;;;;;5.77;2.20;;;11.80;1.00;;;;;;5042285;28;20961;-70
2022/12/29 03:24:56;;;;;;;5.43;2.20;;;11.80;1.00;;;;;;5049413;28;20418;-69
2022/12/29 03:27:30;;;;;;;3.77;2.17;;;11.80;1.00;;;;;;5044499;28;20433;-70
2022/12/29 03:30:00;;;;;;;3.50;2.20;;;11.80;1.00;;;;;;5049493;28;20420;-70
2022/12/29 03:32:31;;;;;;;2.47;2.00;;;11.80;1.00;;;;;;5042422;28;20428;-70
2022/12/29 03:34:58;;;;;;;7.40;1.87;;;11.80;1.00;;;;;;5049221;28;20786;-70
2022/12/29 03:37:29;;;;;;;2.63;2.10;;;11.90;1.00;;;;;;5044742;28;21032;-70
2022/12/29 03:39:56;;;;;;;3.30;1.90;;;11.80;1.00;;;;;;5040504;28;20481;-71
2022/12/29 03:42:25;;;;;;;2.67;2.10;;;11.80;1.00;;;;;;5045527;28;20423;-71
2022/12/29 03:44:56;;;;;;;3.53;1.80;;;11.80;1.00;;;;;;5049344;28;20849;-70
2022/12/29 03:47:22;;;;;;;5.63;1.97;;;11.80;1.00;;;;;;5038591;28;20485;-72
2022/12/29 03:49:49;;;;;;;5.03;2.10;;;11.80;1.00;;;;;;5047583;28;20434;-70
2022/12/29 03:52:15;;;;;;;4.23;1.70;;;11.80;1.00;;;;;;5043071;28;20462;-70
2022/12/29 03:54:40;;;;;;;3.20;1.93;;;11.80;1.00;;;;;;5049306;28;20472;-69
2022/12/29 03:57:06;;;;;;;4.10;2.17;;;11.80;1.00;;;;;;5038488;28;20438;-70
2022/12/29 03:59:32;;;;;;;3.60;2.23;;;11.90;1.00;;;;;;5049176;28;20225;-70
2022/12/29 04:01:57;;;;;;;3.80;1.73;;;11.90;1.00;;;;;;5033832;28;20193;-70
2022/12/29 04:04:23;;;;;;;4.97;2.50;;;11.90;1.00;;;;;;5044098;28;20644;-71
2022/12/29 04:06:48;;;;;;;4.77;1.97;;;11.90;1.00;;;;;;5037140;28;20672;-70
2022/12/29 04:09:14;;;;;;;2.67;2.10;;;12.00;1.00;;;;;;5048330;28;20192;-69
2022/12/29 04:11:39;;;;;;;2.20;1.70;;;12.00;1.00;;;;;;5044488;28;20205;-70
2022/12/29 04:14:05;;;;;;;2.90;1.70;;;12.00;1.00;;;;;;5047749;28;20172;-70
2022/12/29 04:16:30;;;;;;;4.00;1.87;;;12.10;1.00;;;;;;5041397;28;20516;-70
2022/12/29 04:18:56;;;;;;;1.70;1.60;;;12.10;1.00;;;;;;5047524;28;20231;-70
2022/12/29 04:21:21;;;;;;;3.37;1.63;;;12.20;1.00;;;;;;5043034;28;20204;-71
2022/12/29 04:23:47;;;;;;;4.40;1.93;;;12.20;1.00;;;;;;5046350;28;20259;-70
2022/12/29 04:26:13;;;;;;;1.70;1.53;;;12.30;1.00;;;;;;5044797;28;20237;-70
2022/12/29 04:28:38;;;;;;;2.30;1.57;;;12.30;1.00;;;;;;5046958;28;20264;-70
2022/12/29 04:31:04;;;;;;;2.50;1.70;;;12.30;1.00;;;;;;5040954;28;20298;-70
2022/12/29 04:33:30;;;;;;;2.20;1.90;;;12.40;1.00;;;;;;5039374;28;20663;-70
2022/12/29 04:35:56;;;;;;;4.13;1.60;;;12.40;1.00;;;;;;5045802;28;20184;-71
2022/12/29 04:38:23;;;;;;;2.60;1.73;;;12.40;1.00;;;;;;5044306;28;20251;-70
2022/12/29 04:40:49;;;;;;;2.60;1.60;;;12.40;1.00;;;;;;5046070;28;20189;-71
2022/12/29 04:43:16;;;;;;;2.00;1.50;;;12.50;1.00;;;;;;5045264;28;20431;-72
2022/12/29 04:45:46;;;;;;;3.10;1.70;;;12.50;1.00;;;;;;5038938;28;20427;-70
2022/12/29 04:48:12;;;;;;;2.80;2.13;;;12.60;1.00;;;;;;5051690;28;20488;-70
2022/12/29 04:50:39;;;;;;;2.23;1.60;;;12.60;1.00;;;;;;5047809;28;20826;-70
2022/12/29 04:53:04;;;;;;;6.33;1.90;;;12.60;1.00;;;;;;5053272;28;20423;-70
2022/12/29 04:55:30;;;;;;;2.97;2.10;;;12.70;1.00;;;;;;5053796;28;20440;-70
2022/12/29 04:57:56;;;;;;;1.60;1.50;;;12.70;1.00;;;;;;5059918;28;20250;-70
2022/12/29 05:00:21;;;;;;;2.27;1.60;;;12.70;1.00;;;;;;5040927;28;20209;-69
2022/12/29 05:02:47;;;;;;;2.27;1.60;;;12.80;1.00;;;;;;5041008;28;20185;-70
2022/12/29 05:05:13;;;;;;;3.27;2.00;;;12.80;1.00;;;;;;5046707;28;20182;-70
2022/12/29 05:07:38;;;;;;;1.90;1.40;;;12.80;1.00;;;;;;5062557;28;20181;-70
2022/12/29 05:10:05;;;;;;;3.40;1.60;;;12.70;1.00;;;;;;5050564;28;20238;-70
2022/12/29 05:12:32;;;;;;;3.00;1.80;;;12.70;1.00;;;;;;5047283;28;20185;-71
2022/12/29 05:14:57;;;;;;;4.70;1.70;;;12.70;1.00;;;;;;5041216;28;20438;-69
2022/12/29 05:17:23;;;;;;;4.17;1.70;;;12.80;1.00;;;;;;5040050;28;20440;-70
2022/12/29 05:19:48;;;;;;;4.03;1.80;;;12.80;1.00;;;;;;5049789;28;20201;-70
2022/12/29 05:22:14;;;;;;;3.83;1.80;;;12.70;1.00;;;;;;5044017;28;20181;-70
2022/12/29 05:24:39;;;;;;;1.93;1.73;;;12.80;1.00;;;;;;5048604;28;20197;-70
2022/12/29 05:27:05;;;;;;;1.80;1.63;;;12.80;1.00;;;;;;5043414;28;20185;-71
2022/12/29 05:29:31;;;;;;;1.83;1.57;;;12.80;1.00;;;;;;5037381;28;20182;-70
2022/12/29 05:31:56;;;;;;;3.20;1.87;;;12.80;1.00;;;;;;5043222;28;20893;-69
2022/12/29 05:34:22;;;;;;;1.70;1.60;;;12.70;1.00;;;;;;5046170;28;20181;-71
2022/12/29 05:36:47;;;;;;;3.37;1.63;;;12.70;1.00;;;;;;5047384;28;20288;-70
2022/12/29 05:39:13;;;;;;;3.20;1.90;;;12.70;1.00;;;;;;5036887;28;20237;-70
2022/12/29 05:41:38;;;;;;;2.60;1.80;;;12.80;1.00;;;;;;5038685;28;20209;-71
2022/12/29 05:44:04;;;;;;;1.80;1.40;;;12.80;1.00;;;;;;5039366;28;20602;-70
2022/12/29 05:46:29;;;;;;;5.93;1.70;;;12.80;1.00;;;;;;5046378;28;20173;-71
2022/12/29 05:48:55;;;;;;;5.83;1.97;;;12.70;1.00;;;;;;5049792;28;20181;-71
2022/12/29 05:51:20;;;;;;;3.00;1.50;;;12.80;1.00;;;;;;5043522;28;20279;-70
2022/12/29 05:53:46;;;;;;;4.50;1.80;;;12.80;1.00;;;;;;5059662;28;20670;-70
2022/12/29 05:56:11;;;;;;;4.03;1.73;;;12.80;1.00;;;;;;5047462;28;20212;-70
2022/12/29 05:58:37;;;;;;;2.90;1.67;;;12.80;1.00;;;;;;5048944;28;20275;-72
2022/12/29 06:01:03;;;;;;;2.43;1.80;;;12.80;1.00;;;;;;5044180;28;20213;-70
2022/12/29 06:03:28;;;;;;;1.70;1.50;;;12.80;1.00;;;;;;5040412;28;20560;-70
2022/12/29 06:05:54;;;;;;;2.67;1.73;;;12.80;1.00;;;;;;5047703;28;20261;-70
2022/12/29 06:08:19;;;;;;;2.23;2.00;;;12.80;1.00;;;;;;5044217;28;20198;-69
2022/12/29 06:10:45;;;;;;;8.10;1.87;;;12.80;1.00;;;;;;5048207;28;20197;-70
2022/12/29 06:13:10;;;;;;;3.83;1.80;;;12.80;1.00;;;;;;5048125;28;20177;-70
2022/12/29 06:15:36;;;;;;;3.47;1.83;;;12.80;1.00;;;;;;5047940;28;20261;-71
2022/12/29 06:18:02;;;;;;;3.17;1.90;;;12.80;1.00;;;;;;5050067;28;20161;-70
2022/12/29 06:20:27;;;;;;;2.23;1.60;;;12.70;1.00;;;;;;5043669;28;20216;-70
2022/12/29 06:22:53;;;;;;;5.07;2.10;;;12.80;1.00;;;;;;5051190;28;20173;-70
2022/12/29 06:25:18;;;;;;;2.20;2.00;;;12.80;1.00;;;;;;5056175;28;20227;-70
2022/12/29 06:27:44;;;;;;;1.77;1.67;;;12.70;1.00;;;;;;5038390;28;20665;-70
2022/12/29 06:30:10;;;;;;;3.80;1.83;;;12.70;1.00;;;;;;5041074;28;20204;-70
2022/12/29 06:32:36;;;;;;;4.40;1.87;;;12.70;1.00;;;;;;5042073;28;20178;-70
2022/12/29 06:35:03;;;;;;;5.97;2.33;;;12.70;1.00;;;;;;5042010;28;20427;-70
2022/12/29 06:37:29;;;;;;;3.93;1.80;;;12.70;1.00;;;;;;5042102;28;20181;-70
2022/12/29 06:39:55;;;;;;;3.77;2.10;;;12.80;1.00;;;;;;5042555;28;20463;-70
2022/12/29 06:42:20;;;;;;;3.20;1.77;;;12.80;1.00;;;;;;5032542;28;20264;-70
2022/12/29 06:44:46;;;;;;;3.73;2.07;;;12.80;1.00;;;;;;5031929;28;20215;-71
2022/12/29 06:47:12;;;;;;;5.90;1.90;;;12.80;1.00;;;;;;5043988;28;20221;-69
2022/12/29 06:49:37;;;;;;;1.70;1.57;;;12.80;1.00;;;;;;5043074;28;20269;-70
2022/12/29 06:52:04;;;;;;;2.50;2.30;;;12.80;1.00;;;;;;5052049;28;20239;-70
2022/12/29 06:54:30;;;;;;;3.10;1.77;;;12.80;1.00;;;;;;5044918;28;20205;-70
2022/12/29 06:56:56;;;;;;;2.37;2.00;;;12.90;1.00;;;;;;5047783;28;20423;-70
2022/12/29 06:59:22;;;;;;;2.43;2.10;;;12.90;1.00;;;;;;5045414;28;20927;-70
2022/12/29 07:01:47;;;;;;;2.90;2.40;;;12.90;1.00;;;;;;5047824;28;20720;-70
2022/12/29 07:04:13;;;;;;;4.03;2.23;;;12.90;1.00;;;;;;5044200;28;20185;-71
2022/12/29 07:06:40;;;;;;;3.60;2.23;;;13.00;1.00;;;;;;5048971;28;20181;-70
2022/12/29 07:09:06;;;;;;;4.60;2.00;;;13.00;1.00;;;;;;5035913;28;20186;-72
2022/12/29 07:11:31;;;;;;;3.83;1.97;;;12.90;1.00;;;;;;5044353;28;20442;-70
2022/12/29 07:13:57;;;;;;;2.43;1.97;;;12.90;1.00;;;;;;5043477;28;20774;-70
2022/12/29 07:16:23;;;;;;;5.10;2.27;;;12.90;1.00;;;;;;5044042;28;20197;-70
2022/12/29 07:18:48;;;;;;;2.70;2.30;;;12.90;1.00;;;;;;5049223;28;20189;-70
2022/12/29 07:21:14;;;;;;;4.10;2.40;;;13.00;1.00;;;;;;5046076;28;20224;-70
2022/12/29 07:23:39;;;;;;;3.57;2.13;;;13.00;1.00;;;;;;5047059;28;20169;-70
2022/12/29 07:26:08;;;;;;;2.10;1.80;;;13.00;1.00;;;;;;5040914;28;20653;-70
2022/12/29 07:28:35;;;;;;;4.33;2.10;;;13.00;1.00;;;;;;5028365;28;20231;-70
2022/12/29 07:31:00;;;;;;;3.30;2.00;;;13.10;1.00;;;;;;5035760;28;20456;-70
2022/12/29 07:33:28;;;;;;;2.63;2.27;;;13.10;1.00;;;;;;5042337;28;20780;-70
2022/12/29 07:35:54;;;;;;;4.13;2.17;;;13.10;1.00;;;;;;5048272;28;20222;-70
2022/12/29 07:38:19;;;;;;;3.33;2.00;;;13.10;1.00;;;;;;5036792;28;20523;-70
2022/12/29 07:40:44;;;;;;;2.53;2.20;;;13.10;1.00;;;;;;5041088;28;20213;-70
2022/12/29 07:43:10;;;;;;;4.13;2.20;;;13.20;1.00;;;;;;5045529;28;20177;-70
2022/12/29 07:45:35;;;;;;;3.13;2.20;;;13.20;1.00;;;;;;5050086;28;20184;-70
2022/12/29 07:48:02;;;;;;;3.33;2.00;;;13.20;1.00;;;;;;5044747;28;20169;-70
2022/12/29 07:50:28;;;;;;;2.50;2.03;;;13.20;1.00;;;;;;5048815;28;20219;-70
2022/12/29 07:52:53;;;;;;;2.23;1.87;;;13.30;1.00;;;;;;5048848;28;21089;-70
2022/12/29 07:55:19;;;;;;;3.23;2.20;;;13.20;1.00;;;;;;5048805;28;20184;-70
2022/12/29 07:57:44;;;;;;;4.00;2.40;;;13.30;1.00;;;;;;5043899;28;20181;-70
2022/12/29 08:00:10;;;;;;;4.30;2.73;;;13.30;1.00;;;;;;5049007;28;20205;-72
2022/12/29 08:02:36;;;;;;;4.30;2.30;;;13.30;1.00;;;;;;5051528;28;20185;-70
2022/12/29 08:05:02;;;;;;;2.30;2.00;;;13.30;1.00;;;;;;5047789;28;20561;-70
2022/12/29 08:07:27;;;;;;;4.40;2.10;;;13.30;1.00;;;;;;5040149;28;20192;-70
2022/12/29 08:09:53;;;;;;;5.60;2.00;;;13.30;1.00;;;;;;5044456;28;20177;-69
2022/12/29 08:12:19;;;;;;;3.40;2.30;;;13.20;1.00;;;;;;5054432;28;20179;-70
2022/12/29 08:14:44;;;;;;;6.30;2.40;;;13.30;1.00;;;;;;5047737;28;20595;-70
2022/12/29 08:17:10;;;;;;;3.07;2.00;;;13.40;1.00;;;;;;5039574;28;20185;-70
2022/12/29 14:42:22;;;;;;;7.23;3.40;;;10.50;70.00;;;;;;5057753;28;20577;-70
2022/12/29 14:45:00;;;;;;;6.83;3.50;;;10.50;76.60;;;;;;5066797;28;20781;-70
2022/12/29 14:47:35;;;;;;;5.57;2.90;;;10.60;76.30;;;;;;5062304;28;20423;-70
2022/12/29 14:50:05;;;;;;;3.43;2.50;;;10.70;56.50;;;;;;5051830;28;20457;-69
2022/12/29 14:52:31;;;;;;;3.67;2.33;;;10.70;59.20;;;;;;5056223;28;20773;-71
2022/12/29 14:55:23;;;;;;;4.50;2.50;;;10.80;53.30;;;;;;5072433;28;20458;-70
2022/12/29 14:57:52;;;;;;;5.50;2.70;;;10.80;48.80;;;;;;5057427;28;20424;-71
2022/12/29 15:00:20;;;;;;;6.87;3.33;;;10.90;38.70;;;;;;5061074;28;20996;-71
2022/12/29 15:02:49;;;;;;;3.00;2.30;;;10.80;38.70;;;;;;5054313;28;20433;-69
2022/12/29 15:05:46;;;;;;;4.80;1.60;;;10.90;44.60;;;;;;5055527;28;20462;-69
2022/12/29 15:08:16;;;;;;;9.30;4.87;;;13.60;41.00;;;;;;5054351;28;20902;-70
2022/12/29 15:10:48;;;;;;;8.30;3.87;;;10.70;36.30;;;;;;5061261;28;20516;-70
2022/12/29 15:13:24;;;;;;;2.43;1.60;;;10.70;38.60;;;;;;5059950;28;20977;-69
2022/12/29 15:15:50;;;;;;;2.53;1.73;;;10.60;33.90;;;;;;5059600;28;20458;-69
2022/12/29 15:18:31;;;;;;;3.30;2.20;;;10.60;38.50;;;;;;5060000;28;20466;-74
2022/12/29 15:21:02;;;;;;;2.77;1.83;;;11.20;66.10;;;;;;5067335;28;20269;-74
2022/12/29 15:23:30;;;;;;;3.60;1.80;;;11.30;45.70;;;;;;5075173;28;21628;-74
2022/12/29 15:25:58;;;;;;;2.70;1.40;;;13.10;40.60;;;;;;5073749;28;20431;-73
2022/12/29 15:28:25;;;;;;;4.50;2.60;;;;;;;;;;5067428;28;20468;-74
2022/12/29 15:31:03;;;;;;;3.40;1.77;;;11.80;36.20;;;;;;5078879;28;20435;-74
2022/12/29 15:33:29;;;;;;;7.00;3.53;;;11.80;32.60;;;;;;5077184;28;20422;-74
2022/12/29 15:36:01;;;;;;;3.00;1.90;;;11.80;18.80;;;;;;5072972;28;20460;-73
2022/12/29 15:38:29;;;;;;;2.23;1.93;;;11.80;29.40;;;;;;5073501;28;20538;-75
2022/12/29 15:41:00;;;;;;;3.33;1.70;;;11.90;37.10;;;;;;5065523;28;20493;-71
2022/12/29 15:43:51;;;;;;;3.63;3.00;;;11.80;21.40;;;;;;5057864;28;20931;-69
2022/12/29 15:46:17;;;;;;;3.07;2.53;;;11.60;25.90;;;;;;5061936;28;20434;-71
2022/12/29 15:48:43;;;;;;;4.03;3.63;;;11.40;29.80;;;;;;5062511;28;20411;-71
2022/12/29 15:51:24;;;;;;;6.73;4.63;;;11.10;36.70;;;;;;5064049;28;20265;-72
2022/12/29 15:53:51;;;;;;;7.93;4.60;;;11.00;38.80;;;;;;5057281;28;20213;-72
2022/12/29 15:56:17;;;;;;;9.10;5.90;;;10.80;38.70;;;;;;5042014;28;20471;-73
2022/12/29 15:58:50;;;;;;;16.50;9.77;;;10.70;38.50;;;;;;5042576;28;20546;-72
2022/12/29 16:01:30;;;;;;;8.10;5.27;;;10.60;36.30;;;;;;5050485;28;20185;-71
2022/12/29 16:03:58;;;;;;;6.03;3.60;;;10.60;38.50;;;;;;5042397;28;20427;-71
2022/12/29 16:06:28;;;;;;;6.67;4.97;;;10.60;40.40;;;;;;5048486;28;21126;-71
2022/12/29 16:09:07;;;;;;;4.07;2.50;;;10.50;46.40;;;;;;5041920;28;20548;-72
2022/12/29 16:11:43;;;;;;;4.90;2.33;;;10.40;46.60;;;;;;5046485;28;20495;-71
2022/12/29 16:14:18;;;;;;;3.40;2.20;;;10.40;48.10;;;;;;5034127;28;20965;-71
2022/12/29 16:16:45;;;;;;;3.07;1.97;;;10.60;54.50;;;;;;5037608;28;20447;-71
2022/12/29 16:19:21;;;;;;;6.10;2.30;;;10.40;57.00;;;;;;5038845;28;20502;-72
2022/12/29 16:21:47;;;;;;;6.30;2.60;;;10.40;58.90;;;;;;5038381;28;20463;-71
2022/12/29 16:24:20;;;;;;;3.50;2.70;;;10.50;63.40;;;;;;5039878;28;20518;-71
2022/12/29 16:26:49;;;;;;;4.30;2.60;;;10.50;56.90;;;;;;5041568;28;20439;-71
2022/12/29 16:29:15;;;;;;;4.60;2.73;;;10.40;63.20;;;;;;5044122;28;20455;-71
2022/12/29 16:32:02;;;;;;;2.83;2.20;;;10.40;60.50;;;;;;5043645;28;20459;-71
2022/12/29 16:34:29;;;;;;;3.30;2.20;;;10.40;61.00;;;;;;5043118;28;20435;-71
2022/12/29 16:37:21;;;;;;;4.47;2.10;;;10.40;62.30;;;;;;5051305;28;20412;-71
2022/12/29 16:39:47;;;;;;;4.43;2.63;;;10.40;57.80;;;;;;5039758;28;20685;-69
2022/12/29 16:42:44;;;;;;;2.77;1.80;;;10.30;60.00;;;;;;5047098;28;20973;-71
2022/12/29 16:45:48;;;;;;;2.50;2.00;;;10.50;58.60;;;;;;5034950;28;20680;-71
2022/12/29 16:48:13;;;;;;;4.10;2.13;;;10.30;63.30;;;;;;5041702;28;20549;-71
2022/12/29 16:50:41;;;;;;;4.30;2.40;;;10.20;59.10;;;;;;5027744;28;20526;-71
2022/12/29 16:53:19;;;;;;;11.03;2.50;;;10.20;61.70;;;;;;5047724;28;20179;-71
2022/12/29 16:55:49;;;;;;;5.37;2.80;;;10.30;66.50;;;;;;5040243;28;20824;-70
2022/12/29 16:58:21;;;;;;;3.27;2.60;;;10.30;66.20;;;;;;5043628;28;20442;-71
2022/12/29 17:00:47;;;;;;;8.90;3.17;;;10.30;61.90;;;;;;5050160;28;20547;-70
2022/12/29 17:03:13;;;;;;;4.90;2.70;;;;;;;;;;5042922;28;20979;-74
2022/12/29 17:05:38;;;;;;;4.57;3.23;;;10.30;63.20;;;;;;5036259;28;20416;-71
2022/12/29 17:08:22;;;;;;;6.50;5.00;;;10.30;66.30;;;;;;5048193;28;20956;-71
2022/12/29 17:13:40;;;;;;;5.70;3.80;;;10.30;69.00;;;;;;5047409;28;20404;-71
2022/12/29 17:16:07;;;;;;;6.40;4.37;;;10.30;64.70;;;;;;5049670;28;20415;-72
2022/12/29 17:18:33;;;;;;;8.57;3.97;;;10.30;67.60;;;;;;5042536;28;20471;-71
2022/12/29 17:20:59;;;;;;;8.40;3.63;;;10.30;64.80;;;;;;5036378;28;20549;-69
2022/12/29 17:23:25;;;;;;;6.33;3.63;;;10.30;64.70;;;;;;5061608;28;20502;-71
2022/12/29 17:25:52;;;;;;;10.43;3.73;;;10.30;71.30;;;;;;5068575;28;20172;-71
2022/12/29 17:28:29;;;;;;;9.70;4.37;;;10.40;73.50;;;;;;5062404;28;20173;-71
2022/12/29 17:31:01;;;;;;;6.10;3.93;;;10.40;74.50;;;;;;5050015;28;20432;-70
2022/12/29 17:33:29;;;;;;;8.67;3.50;;;10.40;79.80;;;;;;5050475;28;20440;-71
2022/12/29 17:35:55;;;;;;;6.13;3.33;;;10.40;72.50;;;;;;5050177;28;20408;-71
2022/12/29 17:38:24;;;;;;;3.60;2.30;;;10.40;69.20;;;;;;5043775;28;20431;-71
2022/12/29 17:40:50;;;;;;;6.33;3.10;;;10.20;58.60;;;;;;5047919;28;20241;-71
2022/12/29 17:43:16;;;;;;;7.23;2.63;;;10.20;65.90;;;;;;5049197;28;20438;-71
2022/12/29 17:45:43;;;;;;;6.23;2.50;;;10.20;63.20;;;;;;5050037;28;20670;-70
2022/12/29 17:48:12;;;;;;;6.30;2.73;;;10.10;62.60;;;;;;5046441;28;20424;-71
2022/12/29 17:50:38;;;;;;;11.47;2.50;;;10.20;61.40;;;;;;5030328;28;20440;-71
2022/12/29 17:53:06;;;;;;;4.00;2.00;;;10.20;68.60;;;;;;5060742;28;20515;-71
2022/12/29 17:55:32;;;;;;;5.13;2.27;;;10.20;63.50;;;;;;5069553;28;20187;-72
2022/12/29 17:57:58;;;;;;;3.60;2.00;;;10.20;72.70;;;;;;5037640;28;20515;-72
2022/12/29 18:00:29;;;;;;;3.57;2.17;;;10.20;59.40;;;;;;5029621;28;20202;-71
2022/12/29 18:02:58;;;;;;;4.50;1.97;;;10.10;58.40;;;;;;5028032;28;20170;-71
2022/12/29 18:05:27;;;;;;;6.47;2.33;;;10.00;60.50;;;;;;5029376;28;20763;-72
2022/12/29 18:07:57;;;;;;;5.47;2.77;;;10.00;60.00;;;;;;5043912;28;20617;-73
2022/12/29 18:10:25;;;;;;;5.20;2.43;;;10.00;51.80;;;;;;5049182;28;20940;-71
2022/12/29 18:12:53;;;;;;;6.43;2.17;;;10.00;50.70;;;;;;5046907;28;20458;-72
2022/12/29 18:15:25;;;;;;;3.40;2.20;;;10.00;56.20;;;;;;5049357;28;20408;-73
2022/12/29 18:18:11;;;;;;;6.57;2.90;;;9.90;53.70;;;;;;5048426;28;20778;-73
2022/12/29 18:20:38;;;;;;;4.20;1.83;;;9.90;60.10;;;;;;5044525;28;20572;-72
2022/12/29 18:23:04;;;;;;;5.50;2.30;;;9.80;65.60;;;;;;5051668;28;20420;-71
2022/12/29 18:25:41;;;;;;;3.83;2.30;;;9.80;65.50;;;;;;5049077;28;20538;-72
2022/12/29 18:28:07;;;;;;;7.23;2.20;;;9.80;71.40;;;;;;5032844;28;20420;-71
2022/12/29 18:30:34;;;;;;;5.60;2.63;;;9.80;79.10;;;;;;5029482;28;20505;-71
2022/12/29 18:32:59;;;;;;;9.33;3.80;;;9.80;83.50;;;;;;5029035;28;20654;-71
2022/12/29 18:35:32;;;;;;;9.03;3.80;;;9.80;90.60;;;;;;5029028;28;20416;-71
2022/12/29 18:37:57;;;;;;;7.83;3.97;;;9.90;93.50;;;;;;5031570;28;20185;-72
2022/12/29 18:40:23;;;;;;;10.17;4.37;;;9.90;94.20;;;;;;5048702;28;20517;-71
2022/12/29 18:42:48;;;;;;;11.13;4.47;;;9.90;96.10;;;;;;5046330;28;20253;-72
2022/12/29 18:45:23;;;;;;;7.80;4.40;;;9.90;96.10;;;;;;5049337;28;20705;-71
2022/12/29 18:47:48;;;;;;;9.70;4.87;;;9.90;96.10;;;;;;5032821;28;20173;-71
2022/12/29 18:50:15;;;;;;;11.40;6.63;;;9.90;91.30;;;;;;5027717;28;20424;-72
2022/12/29 18:52:41;;;;;;;9.47;6.10;;;9.90;93.00;;;;;;5054687;28;20165;-71
2022/12/29 18:55:18;;;;;;;13.80;6.90;;;9.80;91.40;;;;;;5067610;28;20500;-71
2022/12/29 18:57:43;;;;;;;9.97;6.20;;;9.80;93.00;;;;;;5044324;28;20173;-71
2022/12/29 19:00:10;;;;;;;7.33;4.43;;;9.70;91.40;;;;;;5029248;28;21135;-72
2022/12/29 19:02:36;;;;;;;9.93;4.60;;;9.70;93.20;;;;;;5028610;28;20170;-72
2022/12/29 19:05:02;;;;;;;12.77;4.10;;;9.60;93.40;;;;;;5028704;28;20508;-71
2022/12/29 19:07:28;;;;;;;8.93;3.70;;;9.60;94.50;;;;;;5028797;28;20182;-71
2022/12/29 19:09:53;;;;;;;4.80;2.93;;;9.70;92.10;;;;;;5028808;28;20485;-71
2022/12/29 19:12:19;;;;;;;7.30;3.23;;;9.50;93.50;;;;;;5026605;28;20177;-71
2022/12/29 19:14:44;;;;;;;11.63;3.83;;;9.50;92.70;;;;;;5029183;28;20729;-69
2022/12/29 19:17:11;;;;;;;7.23;4.00;;;9.50;91.60;;;;;;5029305;28;20178;-71
2022/12/29 19:19:38;;;;;;;7.93;3.63;;;9.30;92.40;;;;;;5028663;28;20166;-72
2022/12/29 19:22:03;;;;;;;6.10;3.40;;;9.50;92.00;;;;;;5048881;28;20460;-72
2022/12/29 19:24:29;;;;;;;9.33;4.30;;;9.50;92.60;;;;;;5063830;28;20414;-71
2022/12/29 19:26:54;;;;;;;7.87;3.53;;;9.40;92.20;;;;;;5032816;28;20551;-72
2022/12/29 19:29:20;;;;;;;10.70;4.47;;;9.50;91.30;;;;;;5032791;28;20216;-70
2022/12/29 19:31:45;;;;;;;7.43;3.80;;;9.50;91.80;;;;;;5030649;28;20252;-71
2022/12/29 19:34:13;;;;;;;6.20;3.33;;;9.50;92.70;;;;;;5044112;28;20635;-71
2022/12/29 19:36:39;;;;;;;7.17;3.90;;;9.50;90.00;;;;;;5052239;28;20174;-71
2022/12/29 19:39:05;;;;;;;5.87;3.90;;;9.50;91.80;;;;;;5042229;28;20502;-71
2022/12/29 19:41:31;;;;;;;11.77;3.73;;;9.50;89.60;;;;;;5050870;28;20217;-71
2022/12/29 19:43:57;;;;;;;8.33;3.80;;;9.50;91.60;;;;;;5039999;28;20201;-72
2022/12/29 19:46:24;;;;;;;6.33;3.60;;;9.50;90.50;;;;;;5032581;28;20903;-72
2022/12/29 19:48:50;;;;;;;6.47;3.60;;;9.50;91.30;;;;;;5032502;28;20273;-71
2022/12/29 19:51:17;;;;;;;9.67;4.53;;;9.50;90.90;;;;;;5039068;28;20451;-71
2022/12/29 19:53:43;;;;;;;9.60;4.67;;;9.50;93.60;;;;;;5059755;28;20507;-71
2022/12/29 19:56:09;;;;;;;7.13;3.30;;;9.50;94.40;;;;;;5050976;28;20938;-68
2022/12/29 19:58:36;;;;;;;7.73;4.00;;;9.50;90.00;;;;;;5051868;28;20408;-71
2022/12/29 20:01:11;;;;;;;8.17;4.63;;;9.50;89.90;;;;;;5051313;28;20462;-69
2022/12/29 20:03:38;;;;;;;4.83;3.90;;;9.50;90.70;;;;;;5043792;28;20802;-70
2022/12/29 20:06:05;;;;;;;6.37;4.10;;;9.50;88.80;;;;;;5031890;28;20872;-70